sensor_id;sensor_type;location;lat;lon;timestamp;P1;durP1;ratioP1;P2;durP2;ratioP2
76733;SDS011;65660;53.288;14.666;2023-01-16T00:03:10;3.93;;;2.03;;
76733;SDS011;65660;53.288;14.666;2023-01-16T00:08:10;3.37;;;2.20;;
76733;SDS011;65660;53.288;14.666;2023-01-16T00:13:12;2.40;;;2.10;;
76733;SDS011;65660;53.288;14.666;2023-01-16T00:18:13;2.80;;;2.10;;
76733;SDS011;65660;53.288;14.666;2023-01-16T00:23:13;2.50;;;2.20;;
76733;SDS011;65660;53.288;14.666;2023-01-16T00:28:14;2.93;;;2.10;;
76733;SDS011;65660;53.288;14.666;2023-01-16T00:33:15;2.80;;;2.23;;
76733;SDS011;65660;53.288;14.666;2023-01-16T00:38:15;3.73;;;3.20;;
76733;SDS011;65660;53.288;14.666;2023-01-16T00:43:16;4.50;;;4.10;;
76733;SDS011;65660;53.288;14.666;2023-01-16T00:48:16;2.23;;;2.03;;
76733;SDS011;65660;53.288;14.666;2023-01-16T00:53:17;2.40;;;2.10;;
76733;SDS011;65660;53.288;14.666;2023-01-16T00:58:18;2.10;;;2.00;;
76733;SDS011;65660;53.288;14.666;2023-01-16T01:03:18;2.93;;;1.97;;
76733;SDS011;65660;53.288;14.666;2023-01-16T01:08:19;2.83;;;2.00;;
76733;SDS011;65660;53.288;14.666;2023-01-16T01:13:19;2.30;;;2.00;;
76733;SDS011;65660;53.288;14.666;2023-01-16T01:18:20;2.27;;;2.07;;
76733;SDS011;65660;53.288;14.666;2023-01-16T01:23:21;3.30;;;2.30;;
76733;SDS011;65660;53.288;14.666;2023-01-16T01:28:21;2.37;;;2.17;;
76733;SDS011;65660;53.288;14.666;2023-01-16T01:33:22;3.10;;;2.00;;
76733;SDS011;65660;53.288;14.666;2023-01-16T01:38:22;3.33;;;2.00;;
76733;SDS011;65660;53.288;14.666;2023-01-16T01:48:54;3.80;;;2.03;;
76733;SDS011;65660;53.288;14.666;2023-01-16T01:54:02;2.53;;;2.17;;
76733;SDS011;65660;53.288;14.666;2023-01-16T01:59:07;2.90;;;2.00;;
76733;SDS011;65660;53.288;14.666;2023-01-16T02:04:18;6.57;;;2.23;;
76733;SDS011;65660;53.288;14.666;2023-01-16T02:09:20;3.47;;;2.40;;
76733;SDS011;65660;53.288;14.666;2023-01-16T02:14:22;2.47;;;1.93;;
76733;SDS011;65660;53.288;14.666;2023-01-16T02:30:32;2.77;;;2.00;;
76733;SDS011;65660;53.288;14.666;2023-01-16T02:36:00;2.17;;;1.97;;
76733;SDS011;65660;53.288;14.666;2023-01-16T02:46:32;2.80;;;1.93;;
76733;SDS011;65660;53.288;14.666;2023-01-16T02:51:56;2.77;;;2.20;;
76733;SDS011;65660;53.288;14.666;2023-01-16T02:57:01;2.70;;;2.40;;
76733;SDS011;65660;53.288;14.666;2023-01-16T03:02:06;3.47;;;2.13;;
76733;SDS011;65660;53.288;14.666;2023-01-16T03:07:11;2.67;;;1.80;;
76733;SDS011;65660;53.288;14.666;2023-01-16T03:17:39;2.10;;;1.90;;
76733;SDS011;65660;53.288;14.666;2023-01-16T03:33:31;2.33;;;2.10;;
76733;SDS011;65660;53.288;14.666;2023-01-16T03:38:36;2.33;;;1.90;;
76733;SDS011;65660;53.288;14.666;2023-01-16T03:43:38;3.03;;;2.10;;
76733;SDS011;65660;53.288;14.666;2023-01-16T03:53:46;2.10;;;1.90;;
76733;SDS011;65660;53.288;14.666;2023-01-16T03:58:51;3.03;;;1.83;;
76733;SDS011;65660;53.288;14.666;2023-01-16T04:04:01;3.90;;;2.13;;
76733;SDS011;65660;53.288;14.666;2023-01-16T04:09:07;2.90;;;2.10;;
76733;SDS011;65660;53.288;14.666;2023-01-16T04:14:11;3.33;;;2.67;;
76733;SDS011;65660;53.288;14.666;2023-01-16T04:19:13;3.97;;;2.93;;
76733;SDS011;65660;53.288;14.666;2023-01-16T04:24:15;2.63;;;2.00;;
76733;SDS011;65660;53.288;14.666;2023-01-16T04:29:16;3.80;;;1.87;;
76733;SDS011;65660;53.288;14.666;2023-01-16T04:34:17;3.20;;;2.80;;
76733;SDS011;65660;53.288;14.666;2023-01-16T04:39:17;2.43;;;2.10;;
76733;SDS011;65660;53.288;14.666;2023-01-16T04:44:18;4.77;;;2.30;;
76733;SDS011;65660;53.288;14.666;2023-01-16T04:49:19;4.10;;;2.37;;
76733;SDS011;65660;53.288;14.666;2023-01-16T04:54:20;2.43;;;2.00;;
76733;SDS011;65660;53.288;14.666;2023-01-16T04:59:20;2.70;;;2.50;;
76733;SDS011;65660;53.288;14.666;2023-01-16T05:04:21;3.77;;;2.40;;
76733;SDS011;65660;53.288;14.666;2023-01-16T05:09:22;2.97;;;2.13;;
76733;SDS011;65660;53.288;14.666;2023-01-16T05:14:22;4.93;;;4.53;;
76733;SDS011;65660;53.288;14.666;2023-01-16T05:19:23;2.90;;;2.70;;
76733;SDS011;65660;53.288;14.666;2023-01-16T05:24:23;1.97;;;1.70;;
76733;SDS011;65660;53.288;14.666;2023-01-16T05:29:24;4.90;;;4.60;;
76733;SDS011;65660;53.288;14.666;2023-01-16T05:34:24;2.30;;;1.80;;
76733;SDS011;65660;53.288;14.666;2023-01-16T05:39:25;2.13;;;1.90;;
76733;SDS011;65660;53.288;14.666;2023-01-16T05:44:25;4.37;;;2.07;;
76733;SDS011;65660;53.288;14.666;2023-01-16T05:49:26;3.60;;;2.40;;
76733;SDS011;65660;53.288;14.666;2023-01-16T05:54:27;3.60;;;2.67;;
76733;SDS011;65660;53.288;14.666;2023-01-16T05:59:27;2.40;;;2.13;;
76733;SDS011;65660;53.288;14.666;2023-01-16T06:04:28;2.20;;;1.80;;
76733;SDS011;65660;53.288;14.666;2023-01-16T06:09:28;2.73;;;2.20;;
76733;SDS011;65660;53.288;14.666;2023-01-16T06:14:29;3.20;;;2.60;;
76733;SDS011;65660;53.288;14.666;2023-01-16T06:19:29;2.47;;;2.27;;
76733;SDS011;65660;53.288;14.666;2023-01-16T06:24:30;3.50;;;2.10;;
76733;SDS011;65660;53.288;14.666;2023-01-16T06:29:30;2.73;;;2.37;;
76733;SDS011;65660;53.288;14.666;2023-01-16T06:34:31;2.10;;;1.63;;
76733;SDS011;65660;53.288;14.666;2023-01-16T06:39:32;2.83;;;1.73;;
76733;SDS011;65660;53.288;14.666;2023-01-16T06:44:32;3.60;;;1.80;;
76733;SDS011;65660;53.288;14.666;2023-01-16T06:49:33;3.27;;;1.83;;
76733;SDS011;65660;53.288;14.666;2023-01-16T06:54:34;2.37;;;1.83;;
76733;SDS011;65660;53.288;14.666;2023-01-16T06:59:35;3.20;;;2.40;;
76733;SDS011;65660;53.288;14.666;2023-01-16T07:04:35;3.20;;;3.00;;
76733;SDS011;65660;53.288;14.666;2023-01-16T07:09:36;3.93;;;3.37;;
76733;SDS011;65660;53.288;14.666;2023-01-16T07:14:36;3.47;;;1.93;;
76733;SDS011;65660;53.288;14.666;2023-01-16T07:19:38;2.03;;;1.87;;
76733;SDS011;65660;53.288;14.666;2023-01-16T07:24:39;3.60;;;2.47;;
76733;SDS011;65660;53.288;14.666;2023-01-16T07:29:40;3.00;;;2.20;;
76733;SDS011;65660;53.288;14.666;2023-01-16T07:34:40;3.37;;;2.70;;
76733;SDS011;65660;53.288;14.666;2023-01-16T07:39:41;3.47;;;2.10;;
76733;SDS011;65660;53.288;14.666;2023-01-16T07:44:41;3.67;;;1.90;;
76733;SDS011;65660;53.288;14.666;2023-01-16T07:49:42;3.00;;;2.40;;
76733;SDS011;65660;53.288;14.666;2023-01-16T07:54:42;2.83;;;2.30;;
76733;SDS011;65660;53.288;14.666;2023-01-16T07:59:43;4.07;;;2.57;;
76733;SDS011;65660;53.288;14.666;2023-01-16T08:04:44;2.80;;;2.30;;
76733;SDS011;65660;53.288;14.666;2023-01-16T08:09:44;2.90;;;2.37;;
76733;SDS011;65660;53.288;14.666;2023-01-16T08:14:45;6.17;;;2.60;;
76733;SDS011;65660;53.288;14.666;2023-01-16T08:19:45;2.80;;;2.50;;
76733;SDS011;65660;53.288;14.666;2023-01-16T08:24:46;3.43;;;2.60;;
76733;SDS011;65660;53.288;14.666;2023-01-16T08:29:46;2.60;;;2.40;;
76733;SDS011;65660;53.288;14.666;2023-01-16T08:34:47;3.50;;;2.83;;
76733;SDS011;65660;53.288;14.666;2023-01-16T08:39:47;3.03;;;2.70;;
76733;SDS011;65660;53.288;14.666;2023-01-16T08:44:48;3.93;;;2.53;;
76733;SDS011;65660;53.288;14.666;2023-01-16T08:49:49;4.23;;;2.40;;
76733;SDS011;65660;53.288;14.666;2023-01-16T08:54:49;4.93;;;2.30;;
76733;SDS011;65660;53.288;14.666;2023-01-16T08:59:51;2.70;;;2.33;;
76733;SDS011;65660;53.288;14.666;2023-01-16T09:04:51;3.57;;;2.30;;
76733;SDS011;65660;53.288;14.666;2023-01-16T09:09:52;4.13;;;2.70;;
76733;SDS011;65660;53.288;14.666;2023-01-16T09:14:53;3.70;;;2.43;;
76733;SDS011;65660;53.288;14.666;2023-01-16T09:19:53;3.50;;;3.00;;
76733;SDS011;65660;53.288;14.666;2023-01-16T09:24:54;4.03;;;2.93;;
76733;SDS011;65660;53.288;14.666;2023-01-16T09:29:55;3.87;;;2.50;;
76733;SDS011;65660;53.288;14.666;2023-01-16T09:34:55;5.33;;;2.40;;
76733;SDS011;65660;53.288;14.666;2023-01-16T09:39:56;2.83;;;2.10;;
76733;SDS011;65660;53.288;14.666;2023-01-16T09:44:57;5.27;;;2.40;;
76733;SDS011;65660;53.288;14.666;2023-01-16T09:50:06;5.13;;;2.30;;
76733;SDS011;65660;53.288;14.666;2023-01-16T09:55:15;4.50;;;2.43;;
76733;SDS011;65660;53.288;14.666;2023-01-16T10:00:19;3.30;;;2.40;;
76733;SDS011;65660;53.288;14.666;2023-01-16T10:05:21;4.27;;;2.30;;
76733;SDS011;65660;53.288;14.666;2023-01-16T10:26:17;4.27;;;3.30;;
76733;SDS011;65660;53.288;14.666;2023-01-16T10:36:43;4.40;;;2.60;;
76733;SDS011;65660;53.288;14.666;2023-01-16T10:41:54;5.13;;;2.73;;
76733;SDS011;65660;53.288;14.666;2023-01-16T10:46:56;4.13;;;3.10;;
76733;SDS011;65660;53.288;14.666;2023-01-16T10:51:57;4.70;;;3.80;;
76733;SDS011;65660;53.288;14.666;2023-01-16T10:57:00;3.77;;;3.10;;
76733;SDS011;65660;53.288;14.666;2023-01-16T11:02:03;5.53;;;4.37;;
76733;SDS011;65660;53.288;14.666;2023-01-16T11:07:13;4.00;;;3.40;;
76733;SDS011;65660;53.288;14.666;2023-01-16T11:12:25;4.97;;;3.03;;
76733;SDS011;65660;53.288;14.666;2023-01-16T11:22:29;4.97;;;3.63;;
76733;SDS011;65660;53.288;14.666;2023-01-16T11:27:34;3.77;;;3.10;;
76733;SDS011;65660;53.288;14.666;2023-01-16T11:32:36;3.53;;;3.07;;
76733;SDS011;65660;53.288;14.666;2023-01-16T11:37:37;5.97;;;3.50;;
76733;SDS011;65660;53.288;14.666;2023-01-16T11:42:41;6.03;;;3.83;;
76733;SDS011;65660;53.288;14.666;2023-01-16T11:47:53;3.57;;;3.27;;
76733;SDS011;65660;53.288;14.666;2023-01-16T11:52:53;4.40;;;3.20;;
76733;SDS011;65660;53.288;14.666;2023-01-16T11:58:16;5.77;;;3.13;;
76733;SDS011;65660;53.288;14.666;2023-01-16T12:14:14;4.57;;;3.80;;
76733;SDS011;65660;53.288;14.666;2023-01-16T12:25:15;4.83;;;3.80;;
76733;SDS011;65660;53.288;14.666;2023-01-16T12:30:39;6.13;;;3.80;;
76733;SDS011;65660;53.288;14.666;2023-01-16T12:41:43;6.57;;;3.47;;
76733;SDS011;65660;53.288;14.666;2023-01-16T12:52:00;4.87;;;2.77;;
76733;SDS011;65660;53.288;14.666;2023-01-16T13:08:05;4.93;;;3.20;;
76733;SDS011;65660;53.288;14.666;2023-01-16T13:13:18;5.93;;;3.80;;
76733;SDS011;65660;53.288;14.666;2023-01-16T13:18:30;49.33;;;21.33;;
76733;SDS011;65660;53.288;14.666;2023-01-16T13:23:43;4.87;;;3.80;;
76733;SDS011;65660;53.288;14.666;2023-01-16T13:29:07;6.20;;;3.70;;
76733;SDS011;65660;53.288;14.666;2023-01-16T13:44:35;5.07;;;2.90;;
76733;SDS011;65660;53.288;14.666;2023-01-16T13:49:38;5.63;;;4.00;;
76733;SDS011;65660;53.288;14.666;2023-01-16T13:54:42;5.40;;;3.57;;
76733;SDS011;65660;53.288;14.666;2023-01-16T13:59:44;7.13;;;3.23;;
76733;SDS011;65660;53.288;14.666;2023-01-16T14:10:22;5.80;;;4.00;;
76733;SDS011;65660;53.288;14.666;2023-01-16T14:15:23;4.60;;;3.90;;
76733;SDS011;65660;53.288;14.666;2023-01-16T14:20:41;4.97;;;3.40;;
76733;SDS011;65660;53.288;14.666;2023-01-16T14:25:43;5.53;;;3.83;;
76733;SDS011;65660;53.288;14.666;2023-01-16T14:30:43;6.07;;;4.30;;
76733;SDS011;65660;53.288;14.666;2023-01-16T14:35:49;7.53;;;4.47;;
76733;SDS011;65660;53.288;14.666;2023-01-16T14:40:53;6.00;;;3.90;;
76733;SDS011;65660;53.288;14.666;2023-01-16T14:46:23;5.00;;;4.10;;
76733;SDS011;65660;53.288;14.666;2023-01-16T14:51:30;4.77;;;3.77;;
76733;SDS011;65660;53.288;14.666;2023-01-16T14:56:32;7.27;;;3.83;;
76733;SDS011;65660;53.288;14.666;2023-01-16T15:01:45;5.27;;;3.60;;
76733;SDS011;65660;53.288;14.666;2023-01-16T15:06:55;7.60;;;4.60;;
76733;SDS011;65660;53.288;14.666;2023-01-16T15:12:02;6.37;;;4.83;;
76733;SDS011;65660;53.288;14.666;2023-01-16T15:22:16;8.23;;;4.70;;
76733;SDS011;65660;53.288;14.666;2023-01-16T15:27:20;7.20;;;4.07;;
76733;SDS011;65660;53.288;14.666;2023-01-16T15:32:26;6.40;;;4.13;;
76733;SDS011;65660;53.288;14.666;2023-01-16T15:37:26;6.93;;;4.63;;
76733;SDS011;65660;53.288;14.666;2023-01-16T15:42:28;7.53;;;4.50;;
76733;SDS011;65660;53.288;14.666;2023-01-16T15:47:38;6.53;;;4.60;;
76733;SDS011;65660;53.288;14.666;2023-01-16T15:52:41;7.50;;;6.30;;
76733;SDS011;65660;53.288;14.666;2023-01-16T15:57:46;7.83;;;4.00;;
76733;SDS011;65660;53.288;14.666;2023-01-16T16:03:11;7.80;;;4.50;;
76733;SDS011;65660;53.288;14.666;2023-01-16T16:08:21;6.97;;;4.43;;
76733;SDS011;65660;53.288;14.666;2023-01-16T16:13:24;7.77;;;4.40;;
76733;SDS011;65660;53.288;14.666;2023-01-16T16:18:24;8.50;;;4.50;;
76733;SDS011;65660;53.288;14.666;2023-01-16T16:23:25;8.97;;;4.53;;
76733;SDS011;65660;53.288;14.666;2023-01-16T16:33:32;7.27;;;5.43;;
76733;SDS011;65660;53.288;14.666;2023-01-16T16:38:45;8.77;;;5.23;;
76733;SDS011;65660;53.288;14.666;2023-01-16T16:43:48;9.47;;;5.10;;
76733;SDS011;65660;53.288;14.666;2023-01-16T16:48:55;8.63;;;4.60;;
76733;SDS011;65660;53.288;14.666;2023-01-16T16:54:19;7.17;;;4.50;;
76733;SDS011;65660;53.288;14.666;2023-01-16T16:59:22;8.87;;;4.97;;
76733;SDS011;65660;53.288;14.666;2023-01-16T17:04:24;7.23;;;5.17;;
76733;SDS011;65660;53.288;14.666;2023-01-16T17:09:25;8.00;;;5.40;;
76733;SDS011;65660;53.288;14.666;2023-01-16T17:14:26;7.67;;;5.27;;
76733;SDS011;65660;53.288;14.666;2023-01-16T17:19:30;8.77;;;4.33;;
76733;SDS011;65660;53.288;14.666;2023-01-16T17:24:31;7.10;;;5.60;;
76733;SDS011;65660;53.288;14.666;2023-01-16T17:29:32;7.33;;;4.70;;
76733;SDS011;65660;53.288;14.666;2023-01-16T17:34:32;8.60;;;5.37;;
76733;SDS011;65660;53.288;14.666;2023-01-16T17:39:33;8.67;;;4.70;;
76733;SDS011;65660;53.288;14.666;2023-01-16T17:44:33;7.40;;;4.60;;
76733;SDS011;65660;53.288;14.666;2023-01-16T17:49:34;8.40;;;4.80;;
76733;SDS011;65660;53.288;14.666;2023-01-16T17:54:34;8.37;;;4.90;;
76733;SDS011;65660;53.288;14.666;2023-01-16T17:59:35;7.70;;;5.10;;
76733;SDS011;65660;53.288;14.666;2023-01-16T18:04:36;9.80;;;5.17;;
76733;SDS011;65660;53.288;14.666;2023-01-16T18:09:36;8.87;;;5.13;;
76733;SDS011;65660;53.288;14.666;2023-01-16T18:14:37;8.10;;;5.07;;
76733;SDS011;65660;53.288;14.666;2023-01-16T18:19:37;8.70;;;4.93;;
76733;SDS011;65660;53.288;14.666;2023-01-16T18:24:42;8.07;;;5.57;;
76733;SDS011;65660;53.288;14.666;2023-01-16T18:29:43;9.30;;;5.57;;
76733;SDS011;65660;53.288;14.666;2023-01-16T18:34:46;10.13;;;5.20;;
76733;SDS011;65660;53.288;14.666;2023-01-16T18:39:47;9.83;;;4.93;;
76733;SDS011;65660;53.288;14.666;2023-01-16T18:44:47;10.47;;;5.47;;
76733;SDS011;65660;53.288;14.666;2023-01-16T18:49:48;8.87;;;5.30;;
76733;SDS011;65660;53.288;14.666;2023-01-16T18:54:49;10.13;;;5.43;;
76733;SDS011;65660;53.288;14.666;2023-01-16T18:59:50;9.17;;;5.90;;
76733;SDS011;65660;53.288;14.666;2023-01-16T19:04:50;9.73;;;6.63;;
76733;SDS011;65660;53.288;14.666;2023-01-16T19:09:52;11.50;;;8.03;;
76733;SDS011;65660;53.288;14.666;2023-01-16T19:14:55;9.60;;;6.03;;
76733;SDS011;65660;53.288;14.666;2023-01-16T19:19:55;10.93;;;6.63;;
76733;SDS011;65660;53.288;14.666;2023-01-16T19:24:56;13.30;;;6.67;;
76733;SDS011;65660;53.288;14.666;2023-01-16T19:29:56;12.47;;;5.80;;
76733;SDS011;65660;53.288;14.666;2023-01-16T19:34:57;10.93;;;6.10;;
76733;SDS011;65660;53.288;14.666;2023-01-16T19:39:57;11.07;;;5.40;;
76733;SDS011;65660;53.288;14.666;2023-01-16T19:44:58;9.80;;;5.50;;
76733;SDS011;65660;53.288;14.666;2023-01-16T19:49:59;9.93;;;5.70;;
76733;SDS011;65660;53.288;14.666;2023-01-16T19:54:59;9.77;;;6.00;;
76733;SDS011;65660;53.288;14.666;2023-01-16T20:00:00;10.70;;;5.63;;
76733;SDS011;65660;53.288;14.666;2023-01-16T20:05:00;11.70;;;5.70;;
76733;SDS011;65660;53.288;14.666;2023-01-16T20:10:01;8.17;;;5.77;;
76733;SDS011;65660;53.288;14.666;2023-01-16T20:15:02;9.70;;;6.40;;
76733;SDS011;65660;53.288;14.666;2023-01-16T20:20:03;9.07;;;5.70;;
76733;SDS011;65660;53.288;14.666;2023-01-16T20:25:04;10.40;;;5.90;;
76733;SDS011;65660;53.288;14.666;2023-01-16T20:30:07;12.00;;;7.60;;
76733;SDS011;65660;53.288;14.666;2023-01-16T20:35:09;12.20;;;6.20;;
76733;SDS011;65660;53.288;14.666;2023-01-16T20:40:10;12.60;;;7.00;;
76733;SDS011;65660;53.288;14.666;2023-01-16T20:45:11;11.67;;;7.00;;
76733;SDS011;65660;53.288;14.666;2023-01-16T20:50:11;10.67;;;6.60;;
76733;SDS011;65660;53.288;14.666;2023-01-16T20:55:12;10.60;;;6.87;;
76733;SDS011;65660;53.288;14.666;2023-01-16T21:00:12;14.27;;;8.37;;
76733;SDS011;65660;53.288;14.666;2023-01-16T21:05:13;12.17;;;7.23;;
76733;SDS011;65660;53.288;14.666;2023-01-16T21:10:14;9.97;;;6.33;;
76733;SDS011;65660;53.288;14.666;2023-01-16T21:15:15;11.47;;;7.33;;
76733;SDS011;65660;53.288;14.666;2023-01-16T21:20:15;14.33;;;7.13;;
76733;SDS011;65660;53.288;14.666;2023-01-16T21:25:16;12.57;;;6.70;;
76733;SDS011;65660;53.288;14.666;2023-01-16T21:30:16;15.40;;;8.40;;
76733;SDS011;65660;53.288;14.666;2023-01-16T21:35:18;14.13;;;7.40;;
76733;SDS011;65660;53.288;14.666;2023-01-16T21:40:18;14.07;;;7.23;;
76733;SDS011;65660;53.288;14.666;2023-01-16T21:45:19;11.43;;;7.57;;
76733;SDS011;65660;53.288;14.666;2023-01-16T21:50:20;13.37;;;8.00;;
76733;SDS011;65660;53.288;14.666;2023-01-16T21:55:20;11.77;;;7.50;;
76733;SDS011;65660;53.288;14.666;2023-01-16T22:00:21;12.13;;;7.10;;
76733;SDS011;65660;53.288;14.666;2023-01-16T22:05:21;11.00;;;6.50;;
76733;SDS011;65660;53.288;14.666;2023-01-16T22:10:22;12.50;;;7.07;;
76733;SDS011;65660;53.288;14.666;2023-01-16T22:15:23;12.20;;;7.33;;
76733;SDS011;65660;53.288;14.666;2023-01-16T22:20:23;14.90;;;7.93;;
76733;SDS011;65660;53.288;14.666;2023-01-16T22:25:25;15.00;;;8.33;;
76733;SDS011;65660;53.288;14.666;2023-01-16T22:30:26;15.83;;;9.00;;
76733;SDS011;65660;53.288;14.666;2023-01-16T22:35:27;13.73;;;7.93;;
76733;SDS011;65660;53.288;14.666;2023-01-16T22:40:27;16.67;;;8.10;;
76733;SDS011;65660;53.288;14.666;2023-01-16T22:45:28;15.50;;;8.30;;
76733;SDS011;65660;53.288;14.666;2023-01-16T22:50:28;12.87;;;7.60;;
76733;SDS011;65660;53.288;14.666;2023-01-16T22:55:29;14.40;;;8.30;;
76733;SDS011;65660;53.288;14.666;2023-01-16T23:00:29;16.33;;;8.13;;
76733;SDS011;65660;53.288;14.666;2023-01-16T23:05:30;16.00;;;8.17;;
76733;SDS011;65660;53.288;14.666;2023-01-16T23:10:30;15.90;;;7.93;;
76733;SDS011;65660;53.288;14.666;2023-01-16T23:15:31;14.53;;;8.60;;
76733;SDS011;65660;53.288;14.666;2023-01-16T23:20:31;11.17;;;7.83;;
76733;SDS011;65660;53.288;14.666;2023-01-16T23:25:32;15.60;;;9.00;;
76733;SDS011;65660;53.288;14.666;2023-01-16T23:30:32;16.33;;;9.77;;
76733;SDS011;65660;53.288;14.666;2023-01-16T23:35:33;15.43;;;9.30;;
76733;SDS011;65660;53.288;14.666;2023-01-16T23:40:33;16.57;;;9.23;;
76733;SDS011;65660;53.288;14.666;2023-01-16T23:45:34;17.10;;;10.30;;
76733;SDS011;65660;53.288;14.666;2023-01-16T23:50:34;13.70;;;8.60;;
76733;SDS011;65660;53.288;14.666;2023-01-16T23:55:35;16.57;;;9.40;;
